Time;durP1;ratioP1;P1;durP2;ratioP2;P2;SDS_P1;SDS_P2;PMS_P1;PMS_P2;Temp;Humidity;BMP_temperature;BMP_pressure;BME280_temperature;BME280_humidity;BME280_pressure;Samples;Min_cycle;Max_cycle;Signal;HPM_P1;HPM_P2
2022/11/30 00:02:10;;;;;;;12.63;8.60;;;;;;;6.56;91.77;97254.25;5069803;28;20247;-82
2022/11/30 00:04:37;;;;;;;14.33;9.07;;;;;;;6.69;92.76;97266.78;5087955;28;20190;-84
2022/11/30 00:07:08;;;;;;;15.87;9.23;;;;;;;6.59;92.38;97261.06;5069541;28;20190;-84
2022/11/30 00:09:39;;;;;;;16.47;10.63;;;;;;;6.64;92.81;97269.50;5069978;28;20205;-84
2022/11/30 00:12:14;;;;;;;22.50;10.57;;;;;;;6.70;93.37;97279.63;5019108;28;20593;-84
2022/11/30 00:14:49;;;;;;;16.00;9.23;;;;;;;6.50;91.83;97259.56;5050977;28;20187;-84
2022/11/30 00:17:17;;;;;;;12.47;7.23;;;;;;;6.65;92.38;97268.63;5033298;28;20674;-83
2022/11/30 00:19:46;;;;;;;7.50;5.53;;;;;;;6.37;92.25;97255.63;5066464;28;20209;-83
2022/11/30 00:22:15;;;;;;;8.23;5.37;;;;;;;6.50;92.11;97271.59;5067735;28;20198;-84
2022/11/30 00:24:47;;;;;;;10.27;6.50;;;;;;;6.45;92.26;97268.31;5033851;28;20203;-83
2022/11/30 00:27:18;;;;;;;9.63;6.13;;;;;;;6.31;92.07;97263.50;5049267;28;20611;-82
2022/11/30 00:29:46;;;;;;;9.40;5.90;;;;;;;6.51;92.46;97268.16;5067027;28;20267;-81
2022/11/30 00:32:15;;;;;;;8.10;6.07;;;;;;;6.63;91.89;97272.09;5049122;28;20208;-82
2022/11/30 00:34:44;;;;;;;9.50;5.83;;;;;;;6.70;91.66;97263.34;5067238;28;20198;-82
2022/11/30 00:37:13;;;;;;;8.40;5.97;;;;;;;6.69;91.66;97254.78;5065908;28;20276;-83
2022/11/30 00:39:43;;;;;;;6.07;4.87;;;;;;;6.74;90.43;97260.63;5067406;28;20245;-82
2022/11/30 00:42:10;;;;;;;9.50;5.30;;;;;;;6.62;91.79;97244.69;5049405;28;20286;-82
2022/11/30 00:44:38;;;;;;;8.20;5.63;;;;;;;6.30;92.24;97232.69;5049113;28;20249;-82
2022/11/30 00:47:05;;;;;;;4.73;4.03;;;;;;;6.23;92.16;97211.41;5032291;28;20252;-82
2022/11/30 00:49:32;;;;;;;6.40;4.27;;;;;;;6.26;92.95;97236.22;5048786;28;20254;-82
2022/11/30 00:52:01;;;;;;;5.97;4.70;;;;;;;6.41;92.46;97252.09;5065236;28;20751;-81
2022/11/30 00:54:28;;;;;;;6.13;4.77;;;;;;;6.67;92.38;97253.97;5065613;28;20196;-82
2022/11/30 00:56:58;;;;;;;6.67;5.30;;;;;;;6.74;91.55;97257.25;5049155;28;20195;-84
2022/11/30 00:59:28;;;;;;;7.03;5.23;;;;;;;6.69;91.67;97248.78;5047855;28;20932;-84
2022/11/30 01:01:56;;;;;;;7.33;5.13;;;;;;;6.79;91.42;97245.91;5049050;28;20586;-83
2022/11/30 01:04:28;;;;;;;7.70;4.53;;;;;;;6.78;91.19;97239.06;5049129;28;20200;-81
2022/11/30 01:06:57;;;;;;;8.60;5.87;;;;;;;6.75;90.04;97244.31;5067265;28;20201;-84
2022/11/30 01:09:37;;;;;;;8.00;5.77;;;;;;;6.69;90.08;97241.91;5066733;28;20274;-84
2022/11/30 01:12:06;;;;;;;9.10;6.70;;;;;;;6.50;89.91;97222.72;5033123;28;20223;-85
2022/11/30 01:14:37;;;;;;;7.30;5.57;;;;;;;6.72;90.47;97236.66;5049541;28;20195;-83
2022/11/30 01:17:12;;;;;;;8.47;4.77;;;;;;;6.72;89.88;97231.53;5049861;28;20771;-82
2022/11/30 01:19:43;;;;;;;7.27;4.27;;;;;;;6.65;88.82;97229.16;5065450;28;20240;-82
2022/11/30 01:22:17;;;;;;;6.90;4.63;;;;;;;6.53;89.14;97222.63;5048723;28;20256;-81
2022/11/30 01:24:50;;;;;;;4.93;3.87;;;;;;;6.67;89.49;97238.53;5066848;28;20683;-81
2022/11/30 01:27:22;;;;;;;5.70;3.93;;;;;;;6.69;89.83;97238.50;5066757;28;20202;-81
2022/11/30 01:29:53;;;;;;;4.97;3.93;;;;;;;6.70;90.10;97227.31;5068789;28;20336;-81
2022/11/30 01:32:28;;;;;;;5.97;4.00;;;;;;;6.67;89.27;97232.53;5034716;28;20223;-81
2022/11/30 01:34:58;;;;;;;6.50;4.17;;;;;;;6.48;89.35;97242.47;5049457;28;20243;-81
2022/11/30 01:37:46;;;;;;;6.63;4.67;;;;;;;6.41;90.78;97230.66;5031198;28;20313;-81
2022/11/30 01:40:23;;;;;;;6.90;5.03;;;;;;;6.64;89.59;97235.19;5053788;28;20225;-82
2022/11/30 01:43:41;;;;;;;6.20;4.40;;;;;;;6.59;90.21;97238.72;5037803;28;20329;-81
2022/11/30 01:46:47;;;;;;;7.37;5.77;;;;;;;6.44;90.17;97226.28;5054121;28;20204;-82
2022/11/30 01:49:41;;;;;;;6.30;4.97;;;;;;;6.62;88.87;97221.53;5067354;28;20211;-82
2022/11/30 01:52:40;;;;;;;10.97;6.97;;;;;;;6.82;89.16;97252.72;5065263;28;20221;-83
2022/11/30 01:55:26;;;;;;;10.87;6.20;;;;;;;6.79;88.43;97248.50;5048879;28;20625;-82
2022/11/30 01:58:33;;;;;;;10.60;6.43;;;;;;;6.59;89.28;97237.91;5048345;28;20200;-84
2022/11/30 02:01:05;;;;;;;11.43;6.87;;;;;;;6.40;89.79;97227.25;5051493;28;20765;-80
2022/11/30 02:03:58;;;;;;;7.53;5.07;;;;;;;6.19;90.96;97240.66;5066051;28;20213;-82
2022/11/30 02:06:32;;;;;;;6.17;3.83;;;;;;;5.95;90.50;97192.47;5063523;28;20700;-82
2022/11/30 02:09:23;;;;;;;8.43;4.13;;;;;;;6.24;90.34;97236.25;5065386;28;20250;-80
2022/11/30 02:11:52;;;;;;;5.40;3.63;;;;;;;6.32;90.68;97234.34;5048514;28;20237;-81
2022/11/30 02:14:33;;;;;;;6.20;4.10;;;;;;;6.46;89.39;97239.09;5051478;28;20697;-79
2022/11/30 02:17:24;;;;;;;5.70;4.13;;;;;;;6.52;90.19;97237.22;5051051;28;20258;-81
2022/11/30 02:20:22;;;;;;;5.87;3.70;;;;;;;6.59;89.88;97236.16;5051638;28;20223;-80
2022/11/30 02:23:18;;;;;;;6.00;4.07;;;;;;;6.73;89.42;97233.22;5067743;28;20608;-81
2022/11/30 02:26:29;;;;;;;40.30;21.43;;;;;;;6.42;90.37;97217.78;5068525;28;20725;-82
2022/11/30 02:29:26;;;;;;;9.53;6.33;;;;;;;6.50;89.77;97231.28;5056097;28;20545;-84
2022/11/30 02:32:12;;;;;;;8.10;5.40;;;;;;;6.62;90.51;97229.25;5075460;28;20191;-83
2022/11/30 02:34:54;;;;;;;5.83;4.03;;;;;;;6.39;89.99;97238.41;5075433;28;20200;-83
2022/11/30 02:37:41;;;;;;;6.63;4.30;;;;;;;6.49;90.32;97229.56;5055620;28;20200;-83
2022/11/30 02:40:56;;;;;;;7.57;4.23;;;;;;;6.61;89.89;97220.69;5041155;28;20227;-83
2022/11/30 02:43:43;;;;;;;5.80;4.30;;;;;;;6.80;89.16;97231.34;5077307;28;20194;-83
2022/11/30 02:46:38;;;;;;;6.70;3.63;;;;;;;6.77;88.78;97229.69;5044311;28;20219;-84
2022/11/30 02:49:28;;;;;;;4.37;3.40;;;;;;;6.70;89.32;97222.19;5056692;28;20206;-83
2022/11/30 02:51:58;;;;;;;5.17;3.60;;;;;;;6.75;88.30;97221.16;5057129;28;20691;-83
2022/11/30 02:54:28;;;;;;;9.30;5.67;;;;;;;6.72;89.29;97223.81;5060682;28;20178;-83
2022/11/30 02:57:00;;;;;;;8.77;6.10;;;;;;;6.43;90.19;97204.03;5074512;28;20196;-82
2022/11/30 02:59:32;;;;;;;5.40;3.93;;;;;;;6.52;91.14;97229.50;5073807;28;20195;-83
2022/11/30 03:02:05;;;;;;;6.33;4.87;;;;;;;6.58;90.07;97231.91;5036802;28;20218;-82
2022/11/30 03:04:40;;;;;;;10.63;5.53;;;;;;;6.60;90.89;97224.16;5072575;28;20208;-84
2022/11/30 03:07:30;;;;;;;6.47;4.70;;;;;;;6.06;91.12;97151.88;5069355;28;20592;-83
2022/11/30 03:10:15;;;;;;;7.00;4.80;;;;;;;6.60;92.41;97237.00;5038668;28;20231;-83
2022/11/30 03:13:22;;;;;;;8.13;4.83;;;;;;;6.61;92.15;97232.72;5032892;28;20214;-83
2022/11/30 03:16:20;;;;;;;8.43;5.83;;;;;;;6.68;90.94;97234.25;5041209;28;20199;-83
2022/11/30 03:19:04;;;;;;;7.83;5.43;;;;;;;6.65;91.07;97234.31;5051164;28;20190;-82
2022/11/30 03:21:47;;;;;;;8.43;5.63;;;;;;;6.72;91.16;97221.22;5036525;28;20233;-82
2022/11/30 03:24:30;;;;;;;7.17;4.83;;;;;;;6.64;91.11;97218.03;5041455;28;20195;-81
2022/11/30 03:27:03;;;;;;;6.50;4.80;;;;;;;6.74;91.82;97237.47;5007725;28;20199;-82
2022/11/30 03:29:32;;;;;;;9.37;5.53;;;;;;;6.66;91.25;97241.16;5071562;28;20194;-81
2022/11/30 03:32:02;;;;;;;14.23;7.40;;;;;;;6.67;91.51;97240.25;5019258;28;20754;-82
2022/11/30 03:34:32;;;;;;;17.37;7.87;;;;;;;6.75;91.49;97244.31;5070105;28;20199;-84
2022/11/30 03:37:02;;;;;;;10.60;6.20;;;;;;;6.84;90.69;97241.47;5052099;28;20202;-83
2022/11/30 03:39:51;;;;;;;7.80;5.27;;;;;;;6.54;91.22;97204.59;5069498;28;20208;-84
2022/11/30 03:42:24;;;;;;;5.97;4.07;;;;;;;6.88;90.44;97243.09;5051417;28;20193;-83
2022/11/30 03:44:53;;;;;;;7.67;4.57;;;;;;;6.77;90.61;97245.13;5069665;28;20223;-83
2022/11/30 03:47:29;;;;;;;7.63;4.97;;;;;;;6.82;91.21;97239.84;5068751;28;20270;-84
2022/11/30 03:50:12;;;;;;;6.37;4.03;;;;;;;6.89;89.60;97243.91;5068554;28;20570;-84
2022/11/30 03:53:31;;;;;;;6.60;4.67;;;;;;;6.43;90.97;97231.47;5070916;28;20263;-83
2022/11/30 03:56:29;;;;;;;9.07;4.67;;;;;;;6.30;92.32;97243.81;5042632;28;20201;-83
2022/11/30 03:59:14;;;;;;;10.97;4.97;;;;;;;6.25;92.12;97237.09;5070987;28;20211;-83
2022/11/30 04:01:52;;;;;;;6.30;4.03;;;;;;;6.30;91.66;97218.09;5039961;28;20755;-82
2022/11/30 04:04:50;;;;;;;6.83;4.27;;;;;;;6.43;91.24;97245.16;5052862;28;20194;-82
2022/11/30 04:07:47;;;;;;;9.07;5.00;;;;;;;6.56;90.19;97241.41;5044805;28;20214;-82
2022/11/30 04:10:23;;;;;;;7.30;5.20;;;;;;;6.69;90.60;97246.22;5039716;28;20234;-84
2022/11/30 04:13:08;;;;;;;8.10;5.97;;;;;;;6.76;89.75;97252.91;5069062;28;20202;-84
2022/11/30 04:16:16;;;;;;;7.13;5.23;;;;;;;6.60;89.77;97247.28;5076027;28;20182;-82
2022/11/30 04:18:54;;;;;;;6.97;5.33;;;;;;;6.71;90.40;97260.72;5088313;28;20714;-83
2022/11/30 04:21:30;;;;;;;7.33;5.27;;;;;;;6.50;90.73;97261.28;5073792;28;20237;-82
2022/11/30 04:27:28;;;;;;;8.53;6.30;;;;;;;6.56;90.13;97261.97;5086748;28;20737;-83
2022/11/30 04:30:04;;;;;;;7.43;5.40;;;;;;;6.43;90.56;97224.59;5066612;28;20202;-83
2022/11/30 04:32:47;;;;;;;7.73;4.60;;;;;;;6.43;91.01;97276.03;5074175;28;20281;-84
2022/11/30 04:35:22;;;;;;;7.13;4.70;;;;;;;6.29;91.60;97267.84;5072874;28;20295;-82
2022/11/30 04:38:07;;;;;;;7.10;5.50;;;;;;;6.53;91.36;97272.34;5084735;28;20210;-82
2022/11/30 04:40:45;;;;;;;6.40;5.13;;;;;;;6.50;89.95;97257.00;5037781;28;20229;-82
2022/11/30 04:43:16;;;;;;;6.63;4.87;;;;;;;6.43;90.17;97262.31;5084333;28;20244;-82
2022/11/30 04:45:46;;;;;;;7.47;5.37;;;;;;;6.58;91.01;97269.66;5087300;28;20863;-83
2022/11/30 04:48:17;;;;;;;9.50;6.30;;;;;;;6.52;90.68;97280.09;5068221;28;20282;-80
2022/11/30 04:50:47;;;;;;;9.40;5.97;;;;;;;6.61;91.12;97274.72;5086823;28;20264;-83
2022/11/30 04:53:15;;;;;;;9.43;6.63;;;;;;;6.72;91.02;97282.16;5054114;28;20203;-81
2022/11/30 04:55:44;;;;;;;10.47;6.93;;;;;;;6.83;89.88;97290.44;5073892;28;20253;-81
2022/11/30 04:58:21;;;;;;;10.87;7.73;;;;;;;6.95;90.03;97293.50;5060430;28;20230;-81
2022/11/30 05:00:48;;;;;;;12.03;8.50;;;;;;;6.97;90.55;97296.03;5032574;28;20254;-81
2022/11/30 05:03:17;;;;;;;9.07;6.50;;;;;;;6.47;89.93;97274.25;5049132;28;20286;-81
2022/11/30 05:05:49;;;;;;;8.53;6.47;;;;;;;6.61;90.52;97294.47;5032897;28;20210;-84
2022/11/30 05:08:20;;;;;;;8.53;6.37;;;;;;;6.62;91.64;97280.69;5050360;28;20203;-81
2022/11/30 05:10:54;;;;;;;9.83;6.87;;;;;;;6.75;90.75;97288.06;5040015;28;20243;-82
2022/11/30 05:13:25;;;;;;;12.37;6.53;;;;;;;6.91;89.74;97314.22;5062944;28;20197;-84
2022/11/30 05:15:59;;;;;;;10.13;7.00;;;;;;;6.67;90.91;97305.44;5053296;28;20288;-82
2022/11/30 05:18:30;;;;;;;10.33;7.43;;;;;;;6.50;91.01;97272.44;5070086;28;20643;-81
2022/11/30 05:21:02;;;;;;;11.53;7.47;;;;;;;6.75;90.53;97303.50;5052762;28;20306;-82
2022/11/30 05:23:36;;;;;;;10.87;7.43;;;;;;;6.57;90.43;97297.09;5069972;28;20218;-83
2022/11/30 05:26:28;;;;;;;13.03;8.97;;;;;;;6.78;89.84;97312.88;5068795;28;20198;-83
2022/11/30 05:28:58;;;;;;;14.57;9.13;;;;;;;6.69;89.90;97310.53;5069369;28;20616;-83
2022/11/30 05:31:29;;;;;;;17.37;12.73;;;;;;;6.87;90.80;97315.19;5069837;28;20186;-85
2022/11/30 05:33:57;;;;;;;18.53;12.50;;;;;;;6.86;91.10;97314.34;5069963;28;20239;-82
2022/11/30 05:36:47;;;;;;;18.70;10.77;;;;;;;6.82;89.86;97320.47;5074539;28;20198;-84
2022/11/30 05:39:18;;;;;;;15.17;9.63;;;;;;;6.61;90.65;97289.31;5074584;28;20198;-81
2022/11/30 05:42:02;;;;;;;10.83;7.87;;;;;;;6.73;90.34;97318.16;5062265;28;20725;-81
2022/11/30 05:44:35;;;;;;;13.30;8.73;;;;;;;6.42;90.16;97278.66;5090722;28;20255;-81
2022/11/30 05:47:11;;;;;;;9.67;7.53;;;;;;;6.51;90.73;97299.84;5093352;28;20213;-83
2022/11/30 05:49:42;;;;;;;11.63;7.40;;;;;;;6.61;91.31;97318.47;5091883;28;20190;-84
2022/11/30 05:52:25;;;;;;;11.50;6.60;;;;;;;6.56;91.30;97313.44;5060489;28;20651;-84
2022/11/30 05:54:58;;;;;;;10.10;6.33;;;;;;;6.62;92.48;97319.28;5074374;28;20190;-84
2022/11/30 05:57:39;;;;;;;9.07;6.50;;;;;;;6.53;91.53;97308.34;5057160;28;20265;-83
2022/11/30 06:00:11;;;;;;;18.00;10.93;;;;;;;6.67;90.88;97332.91;5056081;28;20600;-84
2022/11/30 06:02:42;;;;;;;13.63;8.60;;;;;;;6.57;90.72;97294.53;5072758;28;20614;-85
2022/11/30 06:05:13;;;;;;;11.90;8.40;;;;;;;6.80;90.62;97327.38;5073222;28;20212;-85
2022/11/30 06:07:59;;;;;;;9.70;6.07;;;;;;;6.73;90.53;97314.72;5056565;28;20197;-82
2022/11/30 06:10:35;;;;;;;11.60;6.50;;;;;;;6.95;90.40;97323.56;5023809;28;20240;-83
2022/11/30 06:13:08;;;;;;;11.23;6.27;;;;;;;6.98;91.00;97318.34;5056977;28;20204;-84
2022/11/30 06:15:47;;;;;;;10.93;6.90;;;;;;;7.07;89.62;97321.50;5060820;28;20202;-83
2022/11/30 06:18:19;;;;;;;11.17;8.50;;;;;;;7.13;89.41;97331.63;5073019;28;20762;-84
2022/11/30 06:20:53;;;;;;;11.53;7.43;;;;;;;7.01;90.43;97323.38;5055814;28;20551;-84
2022/11/30 06:23:23;;;;;;;11.83;8.17;;;;;;;7.01;88.95;97315.66;5090047;28;20200;-82
2022/11/30 06:25:53;;;;;;;13.07;9.27;;;;;;;7.08;89.14;97342.94;5071397;28;20226;-82
2022/11/30 06:28:25;;;;;;;13.97;10.13;;;;;;;7.14;88.94;97342.78;5089125;28;20243;-82
2022/11/30 06:31:05;;;;;;;13.83;9.60;;;;;;;7.14;89.50;97355.66;5055725;28;20249;-84
2022/11/30 06:33:41;;;;;;;14.30;10.03;;;;;;;7.15;89.41;97347.06;5072099;28;20207;-84
2022/11/30 06:36:24;;;;;;;13.27;9.63;;;;;;;7.10;89.43;97349.75;5089725;28;20208;-82
2022/11/30 06:39:11;;;;;;;13.00;8.83;;;;;;;7.03;89.59;97339.63;5074406;28;20205;-81
2022/11/30 06:42:12;;;;;;;11.57;8.50;;;;;;;7.03;90.38;97324.19;5089803;28;20216;-83
2022/11/30 06:44:44;;;;;;;13.47;9.30;;;;;;;6.95;88.98;97333.84;5054888;28;20293;-85
2022/11/30 06:47:22;;;;;;;12.87;8.60;;;;;;;6.89;89.51;97327.16;5089877;28;20193;-85
2022/11/30 06:50:04;;;;;;;10.70;7.53;;;;;;;6.91;90.17;97335.66;5089268;28;20190;-87
2022/11/30 06:52:40;;;;;;;16.73;10.90;;;;;;;6.73;89.87;97322.44;5041131;28;20287;-84
2022/11/30 06:55:16;;;;;;;17.63;11.97;;;;;;;6.87;89.74;97339.22;5056663;28;20246;-83
2022/11/30 06:57:50;;;;;;;13.43;9.20;;;;;;;6.73;90.65;97319.88;5054580;28;20192;-84
2022/11/30 07:00:24;;;;;;;13.13;8.43;;;;;;;6.73;90.39;97346.47;5071454;28;20195;-82
2022/11/30 07:03:12;;;;;;;12.77;8.60;;;;;;;6.44;91.70;97352.34;5056809;28;20687;-83
2022/11/30 07:05:46;;;;;;;17.33;11.47;;;;;;;6.22;92.93;97340.03;5071873;28;20202;-81
2022/11/30 07:08:19;;;;;;;24.03;17.50;;;;;;;6.43;92.85;97363.50;5071408;28;20202;-84
2022/11/30 07:10:50;;;;;;;30.97;21.80;;;;;;;6.30;93.05;97346.69;5071327;28;20234;-84
2022/11/30 07:13:23;;;;;;;28.90;20.40;;;;;;;6.52;92.40;97354.72;5055574;28;20285;-83
2022/11/30 07:16:01;;;;;;;27.03;19.90;;;;;;;6.44;91.49;97316.31;5089349;28;20193;-82
2022/11/30 07:19:02;;;;;;;28.47;18.07;;;;;;;6.82;91.02;97360.81;5076219;28;20264;-84
2022/11/30 07:21:44;;;;;;;23.17;16.10;;;;;;;6.90;90.48;97358.88;5073170;28;20267;-84
2022/11/30 07:27:37;;;;;;;29.83;18.40;;;;;;;6.93;91.41;97349.34;5054880;28;20644;-83
2022/11/30 07:30:20;;;;;;;24.30;17.07;;;;;;;7.10;91.03;97361.78;5089264;28;20202;-83
2022/11/30 07:32:51;;;;;;;20.60;15.53;;;;;;;7.06;91.14;97355.88;5090179;28;20285;-82
2022/11/30 07:35:24;;;;;;;23.57;14.07;;;;;;;6.89;91.11;97357.19;5056293;28;20203;-83
2022/11/30 07:37:56;;;;;;;22.87;14.67;;;;;;;6.93;90.82;97348.50;5072237;28;20610;-86
2022/11/30 07:40:48;;;;;;;18.97;10.30;;;;;;;6.74;90.40;97326.72;5089414;28;20195;-81
2022/11/30 07:47:29;;;;;;;20.23;12.90;;;;;;;6.97;90.13;97356.09;5089658;28;20203;-85
2022/11/30 07:51:06;;;;;;;18.80;11.43;;;;;;;6.98;91.34;97367.25;5072695;28;20190;-85
2022/11/30 07:54:05;;;;;;;18.47;11.10;;;;;;;7.09;90.76;97372.97;5073597;28;20182;-85
2022/11/30 07:56:39;;;;;;;14.73;10.87;;;;;;;7.17;90.76;97368.47;5072225;28;20193;-87
2022/11/30 07:59:29;;;;;;;16.60;11.20;;;;;;;7.12;90.83;97370.31;5077728;28;20592;-83
2022/11/30 08:06:32;;;;;;;19.53;10.97;;;;;;;6.95;90.11;97373.31;4996335;28;20188;-85
2022/11/30 08:09:03;;;;;;;9.17;6.83;;;;;;;6.91;90.51;97381.16;5010382;28;20192;-82
2022/11/30 08:12:20;;;;;;;12.30;8.20;;;;;;;6.62;90.48;97339.88;5015458;28;20373;-85
2022/11/30 08:15:06;;;;;;;14.40;7.50;;;;;;;6.91;90.35;97386.31;5025813;28;20703;-87
2022/11/30 08:17:54;;;;;;;15.30;7.97;;;;;;;6.65;90.07;97374.13;5007833;28;20263;-85
2022/11/30 08:20:23;;;;;;;11.77;8.47;;;;;;;6.79;90.59;97386.63;5008168;28;20201;-85
2022/11/30 08:23:02;;;;;;;11.63;7.93;;;;;;;6.83;90.83;97388.22;4993732;28;20793;-86
2022/11/30 08:25:47;;;;;;;13.63;9.37;;;;;;;6.70;90.92;97350.84;5010194;28;20193;-85
2022/11/30 08:28:28;;;;;;;11.80;8.97;;;;;;;6.91;89.87;97381.16;5008730;28;20221;-84
2022/11/30 08:31:16;;;;;;;10.70;7.67;;;;;;;6.77;89.31;97336.91;5024656;28;20206;-84
2022/11/30 08:34:01;;;;;;;16.40;9.80;;;;;;;7.17;89.83;97368.47;5057999;28;20251;-85
2022/11/30 08:36:51;;;;;;;14.77;9.13;;;;;;;7.09;89.18;97362.69;5045452;28;20695;-85
2022/11/30 08:39:54;;;;;;;11.70;6.50;;;;;;;7.09;89.00;97383.28;5071012;28;20207;-84
2022/11/30 08:42:49;;;;;;;8.97;6.83;;;;;;;6.94;88.74;97371.66;5065289;28;20222;-87
2022/11/30 08:45:50;;;;;;;9.07;6.40;;;;;;;6.95;88.34;97382.75;5068115;28;20204;-86
2022/11/30 08:48:48;;;;;;;5.60;4.90;;;;;;;7.00;89.66;97379.22;5056399;28;20211;-85
2022/11/30 08:51:50;;;;;;;6.53;4.87;;;;;;;6.91;88.45;97360.56;5059199;28;20313;-85
2022/11/30 08:54:45;;;;;;;7.10;5.10;;;;;;;7.02;88.00;97368.84;5044021;28;20184;-85
2022/11/30 08:58:07;;;;;;;7.93;5.73;;;;;;;6.65;89.65;97348.38;5078071;28;20198;-83
2022/11/30 09:01:25;;;;;;;7.50;4.90;;;;;;;6.66;88.67;97326.06;5066797;28;20202;-83
2022/11/30 09:05:13;;;;;;;10.70;5.77;;;;;;;6.89;89.71;97363.19;5087360;28;20218;-82
2022/11/30 09:09:08;;;;;;;6.63;4.60;;;;;;;6.03;88.36;97218.81;5077857;28;20256;-84
2022/11/30 09:11:57;;;;;;;6.57;4.77;;;;;;;6.66;89.88;97349.25;5052513;28;20288;-84
2022/11/30 09:14:44;;;;;;;5.80;4.00;;;;;;;6.37;88.95;97295.91;5057060;28;20196;-84
2022/11/30 09:17:25;;;;;;;10.20;5.90;;;;;;;6.89;88.08;97352.88;5069323;28;20207;-84
2022/11/30 09:20:24;;;;;;;11.87;7.10;;;;;;;6.80;89.45;97355.69;5035970;28;20263;-84
2022/11/30 09:23:24;;;;;;;8.07;5.63;;;;;;;6.95;88.74;97352.72;5054480;28;20227;-84
2022/11/30 09:26:11;;;;;;;12.20;6.40;;;;;;;7.05;87.99;97359.31;5087052;28;20187;-84
2022/11/30 09:28:59;;;;;;;9.30;5.77;;;;;;;7.06;88.25;97352.44;5039807;28;20267;-83
2022/11/30 09:31:39;;;;;;;9.70;6.07;;;;;;;6.95;88.80;97342.44;5071977;28;20209;-83
2022/11/30 09:34:10;;;;;;;10.43;6.57;;;;;;;7.17;88.55;97343.53;5087056;28;20227;-84
2022/11/30 09:37:02;;;;;;;9.37;6.03;;;;;;;7.24;87.90;97354.50;5039435;28;20290;-84
2022/11/30 09:39:43;;;;;;;7.47;5.50;;;;;;;6.77;88.72;97300.88;5072778;28;20213;-84
2022/11/30 09:42:49;;;;;;;8.17;5.43;;;;;;;7.30;88.63;97355.19;5072713;28;20615;-83
2022/11/30 09:45:30;;;;;;;8.77;6.53;;;;;;;7.30;88.99;97357.75;5071414;28;20207;-84
2022/11/30 09:49:01;;;;;;;13.60;7.27;;;;;;;7.36;88.77;97349.00;5055562;28;20191;-84
2022/11/30 09:51:46;;;;;;;10.60;7.67;;;;;;;7.24;87.74;97346.78;5084539;28;20197;-85
2022/11/30 09:54:46;;;;;;;10.07;6.17;;;;;;;7.05;88.01;97327.56;5086150;28;20228;-84
2022/11/30 09:57:45;;;;;;;10.00;7.27;;;;;;;7.08;88.54;97337.78;5086421;28;20190;-84
2022/11/30 10:00:52;;;;;;;11.13;6.53;;;;;;;7.17;88.73;97333.22;5063143;28;20200;-82
2022/11/30 10:03:44;;;;;;;12.20;7.63;;;;;;;7.21;89.71;97326.28;5081635;28;20193;-85
2022/11/30 10:07:00;;;;;;;10.70;7.90;;;;;;;7.24;90.92;97333.91;5042117;28;20207;-84
2022/11/30 10:10:27;;;;;;;14.23;9.03;;;;;;;7.25;89.61;97339.00;5058875;28;20195;-83
2022/11/30 10:13:41;;;;;;;17.17;9.03;;;;;;;7.17;89.92;97328.06;5070743;28;20549;-84
2022/11/30 10:16:44;;;;;;;16.10;10.73;;;;;;;7.16;89.66;97328.13;5086072;28;20207;-85
2022/11/30 10:19:44;;;;;;;20.23;11.50;;;;;;;7.27;89.79;97324.34;5062253;28;20202;-82
2022/11/30 10:22:33;;;;;;;17.90;9.67;;;;;;;7.22;89.57;97336.53;5039576;28;20229;-85
2022/11/30 10:25:27;;;;;;;12.37;8.80;;;;;;;7.26;89.43;97338.13;5064839;28;21047;-83
2022/11/30 10:28:25;;;;;;;11.30;7.70;;;;;;;7.19;89.74;97320.34;5059789;28;20210;-83
2022/11/30 10:31:18;;;;;;;12.23;8.07;;;;;;;7.31;89.34;97333.72;5063625;28;20616;-83
2022/11/30 10:33:51;;;;;;;14.60;8.23;;;;;;;7.24;90.17;97319.31;5059827;28;20273;-85
2022/11/30 10:37:27;;;;;;;19.90;11.27;;;;;;;7.43;89.16;97332.50;5070222;28;20186;-84
2022/11/30 10:40:50;;;;;;;25.87;13.97;;;;;;;7.21;90.41;97305.69;5072603;28;20198;-85
2022/11/30 10:47:26;;;;;;;15.03;10.30;;;;;;;7.13;90.61;97300.72;5061865;28;20246;-85
2022/11/30 10:50:38;;;;;;;18.63;10.77;;;;;;;7.32;90.07;97311.34;5050013;28;20290;-84
2022/11/30 10:53:14;;;;;;;19.47;12.07;;;;;;;7.31;89.73;97317.41;5067059;28;20196;-82
2022/11/30 10:56:09;;;;;;;15.60;10.80;;;;;;;7.43;89.23;97329.06;5050423;28;20205;-85
2022/11/30 10:59:27;;;;;;;14.13;8.97;;;;;;;7.24;90.49;97319.31;5052200;28;20557;-84
2022/11/30 11:02:38;;;;;;;12.63;9.27;;;;;;;7.47;89.96;97331.53;5047888;28;20360;-84
2022/11/30 11:05:28;;;;;;;10.33;8.20;;;;;;;7.52;90.27;97321.09;5047861;28;20285;-83
2022/11/30 11:08:30;;;;;;;12.27;8.53;;;;;;;7.42;90.10;97297.31;5066401;28;20951;-86
2022/11/30 11:11:39;;;;;;;13.37;8.57;;;;;;;7.62;89.49;97328.50;5049973;28;20238;-85
2022/11/30 11:15:29;;;;;;;13.60;9.83;;;;;;;7.70;89.85;97331.69;5059544;28;20214;-85
2022/11/30 11:18:22;;;;;;;16.77;11.87;;;;;;;7.64;90.02;97334.47;5048307;28;20741;-83
2022/11/30 11:21:28;;;;;;;12.67;8.80;;;;;;;7.63;90.23;97317.31;5075644;28;20206;-85
2022/11/30 11:24:13;;;;;;;12.47;9.07;;;;;;;7.66;90.60;97317.22;5055039;28;20640;-85
2022/11/30 11:26:55;;;;;;;12.07;8.80;;;;;;;7.43;90.14;97318.78;5087205;28;20630;-84
2022/11/30 11:29:44;;;;;;;14.63;9.20;;;;;;;7.38;91.10;97296.56;5053048;28;20226;-85
2022/11/30 11:33:24;;;;;;;14.97;9.63;;;;;;;7.31;91.64;97297.66;5087816;28;20196;-85
2022/11/30 11:36:25;;;;;;;21.10;12.00;;;;;;;7.34;90.78;97301.84;5073839;28;20199;-84
2022/11/30 11:38:57;;;;;;;20.07;12.40;;;;;;;7.51;90.92;97330.53;5021821;28;20597;-83
2022/11/30 11:42:04;;;;;;;19.20;11.37;;;;;;;7.13;90.97;97331.63;5054727;28;20776;-86
2022/11/30 11:44:58;;;;;;;21.00;11.20;;;;;;;7.03;92.14;97326.75;5056482;28;20207;-86
2022/11/30 11:47:47;;;;;;;18.93;11.40;;;;;;;6.97;92.57;97322.63;5073194;28;21043;-84
2022/11/30 11:50:40;;;;;;;18.37;12.83;;;;;;;6.98;93.37;97326.06;5088244;28;20199;-82
2022/11/30 11:53:46;;;;;;;18.37;13.17;;;;;;;7.10;92.92;97325.72;5072100;28;20203;-86
2022/11/30 11:56:55;;;;;;;21.87;12.60;;;;;;;7.17;92.42;97327.25;5089423;28;20573;-85
2022/11/30 12:00:01;;;;;;;21.47;13.53;;;;;;;7.34;91.81;97332.75;5080567;27;1337401;-84
2022/11/30 12:02:53;;;;;;;22.83;14.00;;;;;;;7.43;91.40;97332.50;5087979;28;20245;-86
2022/11/30 12:05:32;;;;;;;22.47;16.10;;;;;;;7.39;92.43;97328.31;5085297;28;20285;-83
2022/11/30 12:08:33;;;;;;;29.27;17.20;;;;;;;7.51;92.84;97340.00;5105493;28;20214;-85
2022/11/30 12:11:14;;;;;;;20.27;13.73;;;;;;;7.53;91.70;97340.81;5104549;28;20252;-84
2022/11/30 12:13:43;;;;;;;19.70;13.10;;;;;;;7.61;91.86;97337.13;5103923;28;20187;-85
2022/11/30 12:16:28;;;;;;;21.73;13.83;;;;;;;7.72;91.79;97345.38;5107013;28;20186;-82
2022/11/30 12:19:16;;;;;;;16.27;11.17;;;;;;;7.51;91.08;97351.16;5103780;28;20306;-82
2022/11/30 12:21:52;;;;;;;15.60;10.73;;;;;;;7.57;90.46;97353.56;5104862;28;20673;-85
2022/11/30 12:24:26;;;;;;;17.67;11.60;;;;;;;7.53;90.95;97364.00;5105078;28;20190;-83
2022/11/30 12:27:07;;;;;;;18.60;12.13;;;;;;;7.59;91.60;97362.09;5085424;28;20194;-83
2022/11/30 12:29:49;;;;;;;18.87;11.97;;;;;;;7.56;91.59;97357.03;5105208;28;20199;-83
2022/11/30 12:32:29;;;;;;;21.97;15.00;;;;;;;7.23;92.21;97309.06;5068583;28;20677;-87
2022/11/30 12:35:11;;;;;;;19.27;13.77;;;;;;;7.65;92.01;97356.75;5105877;28;20805;-85
2022/11/30 12:38:13;;;;;;;20.60;14.27;;;;;;;7.38;92.52;97358.41;5087523;28;20277;-86
2022/11/30 12:40:54;;;;;;;28.57;18.57;;;;;;;7.54;92.72;97357.97;5103702;28;20602;-85
2022/11/30 12:43:39;;;;;;;34.27;22.07;;;;;;;7.56;91.73;97341.59;5086638;28;20210;-85
2022/11/30 12:46:15;;;;;;;25.43;17.47;;;;;;;7.59;91.84;97341.47;5104574;28;20180;-85
2022/11/30 12:49:00;;;;;;;26.73;18.83;;;;;;;7.72;91.54;97347.13;5103152;28;20201;-83
2022/11/30 12:52:05;;;;;;;32.40;21.87;;;;;;;7.36;92.13;97342.13;5104802;28;20235;-85
2022/11/30 12:54:42;;;;;;;49.97;31.53;;;;;;;7.36;91.97;97356.75;5072316;28;20206;-82
2022/11/30 12:57:26;;;;;;;48.33;31.47;;;;;;;7.24;91.89;97333.91;5085546;28;20260;-83
2022/11/30 13:00:14;;;;;;;56.37;33.60;;;;;;;7.44;91.65;97359.94;5105301;28;20334;-84
2022/11/30 13:03:04;;;;;;;49.70;28.07;;;;;;;7.19;92.76;97361.53;5103260;28;20571;-85
2022/11/30 13:05:34;;;;;;;43.33;26.97;;;;;;;7.20;93.66;97360.63;5105240;28;20189;-85
2022/11/30 13:08:17;;;;;;;41.60;25.63;;;;;;;7.19;92.65;97328.06;5086563;28;20199;-85
2022/11/30 13:10:46;;;;;;;42.70;26.67;;;;;;;7.43;92.04;97350.53;5091911;28;20176;-84
2022/11/30 13:13:28;;;;;;;42.07;27.63;;;;;;;7.56;92.24;97362.19;5091186;28;20267;-86
2022/11/30 13:15:57;;;;;;;44.57;28.70;;;;;;;7.52;93.32;97363.19;5071669;28;20222;-87